Time;durP1;ratioP1;P1;durP2;ratioP2;P2;SDS_P1;SDS_P2;PMS_P1;PMS_P2;Temp;Humidity;BMP_temperature;BMP_pressure;BME280_temperature;BME280_humidity;BME280_pressure;Samples;Min_cycle;Max_cycle;Signal;HPM_P1;HPM_P2
2023/08/19 00:00:56;;;;;;;22.75;21.92;;;24.10;99.90;;;;;;5096603;28;20572;-68
2023/08/19 00:03:23;;;;;;;22.52;21.70;;;24.20;99.90;;;;;;5098248;28;20301;-65
2023/08/19 00:05:50;;;;;;;18.65;17.98;;;24.20;99.90;;;;;;5096054;28;20226;-68
2023/08/19 00:08:16;;;;;;;23.25;22.45;;;24.10;99.90;;;;;;5096509;28;20216;-66
2023/08/19 00:10:44;;;;;;;19.50;18.80;;;24.10;99.90;;;;;;5095162;28;20206;-68
2023/08/19 00:13:11;;;;;;;19.30;18.60;;;24.10;99.90;;;;;;5094818;28;20212;-66
2023/08/19 00:15:38;;;;;;;23.55;22.70;;;24.00;99.90;;;;;;5094258;28;20240;-66
2023/08/19 00:18:05;;;;;;;17.95;17.30;;;24.00;99.90;;;;;;5096946;28;20198;-66
2023/08/19 00:20:32;;;;;;;19.95;19.25;;;24.00;99.90;;;;;;5092073;28;20585;-67
2023/08/19 00:23:00;;;;;;;17.50;16.90;;;24.00;99.90;;;;;;5093335;28;20233;-67
2023/08/19 00:25:27;;;;;;;21.15;20.38;;;24.00;99.90;;;;;;5093319;28;20314;-67
2023/08/19 00:27:56;;;;;;;19.40;18.70;;;24.00;99.90;;;;;;5092834;28;20626;-67
2023/08/19 00:30:22;;;;;;;16.23;15.63;;;23.90;99.90;;;;;;5091902;28;20210;-68
2023/08/19 00:32:49;;;;;;;18.05;17.42;;;23.90;99.90;;;;;;5093403;28;20587;-68
2023/08/19 00:35:16;;;;;;;18.40;17.67;;;23.90;99.90;;;;;;5093067;28;20202;-66
2023/08/19 00:37:43;;;;;;;16.30;15.65;;;23.90;99.90;;;;;;5092705;28;20210;-66
2023/08/19 00:40:13;;;;;;;19.15;18.45;;;23.90;99.90;;;;;;5092499;28;20208;-67
2023/08/19 00:42:40;;;;;;;15.98;15.40;;;23.80;99.90;;;;;;5092779;28;20222;-66
2023/08/19 00:45:10;;;;;;;16.17;15.50;;;23.80;99.90;;;;;;5092966;28;20221;-66
2023/08/19 00:47:37;;;;;;;17.92;17.30;;;23.80;99.90;;;;;;5091254;28;20202;-67
2023/08/19 00:50:05;;;;;;;17.55;16.95;;;23.80;99.90;;;;;;5092265;28;20202;-65
2023/08/19 00:52:32;;;;;;;18.95;18.30;;;23.70;99.90;;;;;;5092648;28;20202;-64
2023/08/19 00:54:59;;;;;;;17.48;16.85;;;23.60;99.90;;;;;;5092994;28;20234;-67
2023/08/19 00:57:27;;;;;;;23.40;22.58;;;23.60;99.90;;;;;;5100477;28;20229;-66
2023/08/19 00:59:54;;;;;;;20.33;19.58;;;23.60;99.90;;;;;;5092092;28;20210;-66
2023/08/19 01:02:22;;;;;;;22.17;21.38;;;23.60;99.90;;;;;;5093039;28;20319;-67
2023/08/19 01:04:49;;;;;;;22.13;21.33;;;23.50;99.90;;;;;;5098202;28;20210;-65
2023/08/19 01:07:28;;;;;;;28.88;27.85;;;23.50;99.90;;;;;;5092504;28;20233;-67
2023/08/19 01:10:03;;;;;;;23.17;22.33;;;23.40;99.90;;;;;;5093094;28;20183;-66
2023/08/19 01:12:41;;;;;;;22.88;22.02;;;23.30;99.90;;;;;;5092180;28;20324;-66
2023/08/19 01:15:12;;;;;;;26.50;25.55;;;23.30;99.90;;;;;;5092321;28;20212;-66
2023/08/19 01:17:41;;;;;;;26.05;25.13;;;23.20;99.90;;;;;;5092128;28;20590;-66
2023/08/19 01:20:11;;;;;;;28.83;27.75;;;23.20;99.90;;;;;;5090725;28;20207;-65
2023/08/19 01:22:50;;;;;;;25.58;24.52;;;23.10;99.90;;;;;;5093336;28;20218;-67
2023/08/19 01:25:19;;;;;;;27.80;26.80;;;22.90;99.90;;;;;;5091250;28;20187;-67
2023/08/19 01:27:46;;;;;;;29.38;28.30;;;22.90;99.90;;;;;;5091750;28;20265;-68
2023/08/19 01:30:14;;;;;;;24.90;23.98;;;22.80;99.90;;;;;;5087197;28;20606;-65
2023/08/19 01:32:42;;;;;;;29.95;28.90;;;22.80;99.90;;;;;;5092344;28;20214;-66
2023/08/19 01:35:09;;;;;;;31.15;30.08;;;22.70;99.90;;;;;;5092011;28;20206;-64
2023/08/19 01:37:43;;;;;;;34.20;32.97;;;22.70;99.90;;;;;;5091563;28;20593;-66
2023/08/19 01:40:13;;;;;;;26.30;25.35;;;22.70;99.90;;;;;;5090934;28;20213;-67
2023/08/19 01:42:42;;;;;;;28.83;27.77;;;22.70;99.90;;;;;;5092236;28;20237;-66
2023/08/19 01:45:10;;;;;;;33.28;31.98;;;22.70;99.90;;;;;;5094874;28;20576;-66
2023/08/19 01:47:38;;;;;;;27.90;26.88;;;22.70;99.90;;;;;;5092289;28;20198;-65
2023/08/19 01:50:06;;;;;;;30.13;29.02;;;22.70;99.90;;;;;;5090968;28;20207;-65
2023/08/19 01:52:33;;;;;;;25.10;24.23;;;22.70;99.90;;;;;;5091785;28;20205;-65
2023/08/19 01:55:01;;;;;;;19.98;19.23;;;22.70;99.90;;;;;;5093447;28;20702;-67
2023/08/19 01:57:28;;;;;;;22.02;21.25;;;22.70;99.90;;;;;;5094104;28;20254;-68
2023/08/19 01:59:56;;;;;;;22.02;21.23;;;22.60;99.90;;;;;;5091971;28;20238;-68
2023/08/19 02:02:23;;;;;;;22.40;21.63;;;22.60;99.90;;;;;;5091673;28;20405;-66
2023/08/19 02:04:50;;;;;;;21.25;20.35;;;22.50;99.90;;;;;;5091492;28;20298;-68
2023/08/19 02:07:17;;;;;;;19.65;18.95;;;22.50;99.90;;;;;;5091085;28;20242;-67
2023/08/19 02:09:45;;;;;;;23.23;22.35;;;22.50;99.90;;;;;;5090801;28;20630;-68
2023/08/19 02:12:12;;;;;;;27.95;26.92;;;22.40;99.90;;;;;;5091642;28;20199;-68
2023/08/19 02:14:39;;;;;;;31.13;29.98;;;22.30;99.90;;;;;;5091156;28;20599;-68
2023/08/19 02:17:08;;;;;;;31.90;30.73;;;22.30;99.90;;;;;;5089940;28;20660;-66
2023/08/19 02:19:35;;;;;;;27.63;26.60;;;22.30;99.90;;;;;;5090339;28;20202;-66
2023/08/19 02:22:02;;;;;;;27.98;26.95;;;22.30;99.90;;;;;;5090721;28;20230;-65
2023/08/19 02:24:29;;;;;;;27.85;26.88;;;22.30;99.90;;;;;;5091669;28;20207;-67
2023/08/19 02:26:56;;;;;;;29.65;28.58;;;22.30;99.90;;;;;;5091999;28;20227;-67
2023/08/19 02:29:22;;;;;;;30.17;29.05;;;22.20;99.90;;;;;;5091338;28;20206;-67
2023/08/19 02:31:49;;;;;;;26.20;25.27;;;22.20;99.90;;;;;;5092013;28;20198;-67
2023/08/19 02:34:18;;;;;;;25.50;24.60;;;22.20;99.90;;;;;;5091981;28;20581;-67
2023/08/19 02:36:45;;;;;;;28.33;27.30;;;22.10;99.90;;;;;;5103835;22;20589;-66
2023/08/19 02:39:12;;;;;;;27.55;26.60;;;22.00;99.90;;;;;;5089124;28;20730;-65
2023/08/19 02:41:38;;;;;;;32.92;31.63;;;22.00;99.90;;;;;;5089812;28;20206;-64
2023/08/19 02:44:05;;;;;;;28.70;27.70;;;22.00;99.90;;;;;;5089776;28;20206;-66
2023/08/19 02:46:32;;;;;;;32.28;31.13;;;22.00;99.90;;;;;;5089918;28;20256;-64
2023/08/19 02:48:59;;;;;;;27.33;26.33;;;22.10;99.90;;;;;;5089383;28;20203;-65
2023/08/19 02:51:27;;;;;;;21.92;21.17;;;22.00;99.90;;;;;;5088908;28;20230;-65
2023/08/19 02:53:54;;;;;;;22.50;21.70;;;22.00;99.90;;;;;;5090804;28;20194;-66
2023/08/19 02:56:21;;;;;;;28.75;27.65;;;22.00;99.90;;;;;;5091158;28;20237;-64
2023/08/19 02:58:48;;;;;;;27.38;26.38;;;21.90;99.90;;;;;;5089983;28;20206;-66
2023/08/19 03:01:14;;;;;;;27.45;26.48;;;21.90;99.90;;;;;;5089638;28;20206;-65
2023/08/19 03:03:41;;;;;;;24.88;23.98;;;21.80;99.90;;;;;;5089039;28;20240;-64
2023/08/19 03:06:08;;;;;;;25.38;24.42;;;21.80;99.90;;;;;;5089613;28;20226;-65
2023/08/19 03:08:36;;;;;;;23.40;22.48;;;21.80;99.90;;;;;;5090078;28;20203;-66
2023/08/19 03:11:04;;;;;;;29.75;28.67;;;21.80;99.90;;;;;;5089435;28;20202;-67
2023/08/19 03:13:31;;;;;;;43.30;41.53;;;21.80;99.90;;;;;;5089842;28;20290;-64
2023/08/19 03:16:00;;;;;;;24.33;23.38;;;21.70;99.90;;;;;;5089739;28;20242;-66
2023/08/19 03:18:26;;;;;;;41.95;40.00;;;21.70;99.90;;;;;;5089950;28;20222;-67
2023/08/19 03:20:57;;;;;;;26.25;25.30;;;21.70;99.90;;;;;;5089880;28;20217;-66
2023/08/19 03:23:25;;;;;;;23.67;22.83;;;21.70;99.90;;;;;;5090954;28;20592;-64
2023/08/19 03:25:54;;;;;;;23.48;22.63;;;21.80;99.90;;;;;;5091102;28;20219;-65
2023/08/19 03:28:21;;;;;;;26.50;25.55;;;21.70;99.90;;;;;;5094772;28;20606;-64
2023/08/19 03:30:48;;;;;;;26.52;25.55;;;21.70;99.90;;;;;;5099856;28;20724;-63
2023/08/19 03:33:14;;;;;;;27.17;26.23;;;21.60;99.90;;;;;;5093814;28;20207;-62
2023/08/19 03:35:41;;;;;;;30.15;29.08;;;21.60;99.90;;;;;;5105437;28;20567;-65
2023/08/19 03:38:08;;;;;;;25.13;24.15;;;21.60;99.90;;;;;;5121387;28;20297;-64
2023/08/19 03:40:35;;;;;;;26.98;26.02;;;21.70;99.90;;;;;;5110899;28;20212;-64
2023/08/19 03:43:04;;;;;;;25.73;24.77;;;21.60;99.90;;;;;;5111334;28;20691;-64
2023/08/19 03:45:33;;;;;;;21.50;20.67;;;21.60;99.90;;;;;;5111171;28;20209;-67
2023/08/19 03:48:00;;;;;;;22.50;21.67;;;21.60;99.90;;;;;;5111098;28;20203;-65
2023/08/19 03:50:27;;;;;;;27.27;26.25;;;21.60;99.90;;;;;;5110316;28;20202;-65
2023/08/19 03:52:54;;;;;;;27.08;26.08;;;21.60;99.90;;;;;;5110970;28;20209;-66
2023/08/19 03:55:20;;;;;;;26.52;25.55;;;21.50;99.90;;;;;;5111234;28;20198;-64
2023/08/19 03:57:47;;;;;;;28.67;27.55;;;21.50;99.90;;;;;;5110644;28;20675;-64
2023/08/19 04:00:16;;;;;;;28.67;27.63;;;21.50;99.90;;;;;;5110234;28;20201;-63
2023/08/19 04:02:43;;;;;;;25.42;24.50;;;21.60;99.90;;;;;;5109220;28;20575;-66
2023/08/19 04:05:11;;;;;;;24.48;23.55;;;21.60;99.90;;;;;;5109276;28;20206;-66
2023/08/19 04:07:38;;;;;;;30.73;29.63;;;21.60;99.90;;;;;;5108929;28;20222;-64
2023/08/19 04:10:06;;;;;;;29.13;28.08;;;21.60;99.90;;;;;;5108629;28;20689;-66
2023/08/19 04:12:33;;;;;;;25.00;24.08;;;21.60;99.90;;;;;;5109125;28;20194;-64
2023/08/19 04:15:00;;;;;;;25.58;24.67;;;21.60;99.90;;;;;;5108997;28;20634;-66
2023/08/19 04:17:28;;;;;;;24.75;23.90;;;21.60;99.90;;;;;;5109409;28;20609;-65
2023/08/19 04:19:55;;;;;;;29.80;28.75;;;21.50;99.90;;;;;;5108793;28;20206;-65
2023/08/19 04:22:22;;;;;;;34.30;33.08;;;21.50;99.90;;;;;;5108933;28;20204;-66
2023/08/19 04:24:51;;;;;;;26.48;25.52;;;21.40;99.90;;;;;;5108911;28;20212;-64
2023/08/19 04:27:18;;;;;;;31.58;30.40;;;21.40;99.90;;;;;;5108712;28;20565;-65
2023/08/19 04:29:45;;;;;;;28.70;27.63;;;21.30;99.90;;;;;;5107957;28;20198;-64
2023/08/19 04:32:13;;;;;;;28.25;27.23;;;21.40;99.90;;;;;;5108705;28;20249;-66
2023/08/19 04:34:41;;;;;;;32.35;31.23;;;21.40;99.90;;;;;;5109152;28;20237;-64
2023/08/19 04:37:08;;;;;;;30.40;29.30;;;21.30;99.90;;;;;;5108476;28;20733;-65
2023/08/19 04:39:36;;;;;;;34.50;33.28;;;21.40;99.90;;;;;;5108477;28;20229;-65
2023/08/19 04:42:03;;;;;;;23.83;22.98;;;21.40;99.90;;;;;;5113136;28;20245;-66
2023/08/19 04:44:30;;;;;;;24.88;23.95;;;21.40;99.90;;;;;;5112774;28;20228;-66
2023/08/19 04:46:57;;;;;;;29.58;28.40;;;21.40;99.90;;;;;;5113455;28;20666;-63
2023/08/19 04:49:24;;;;;;;26.98;26.02;;;21.40;99.90;;;;;;5112123;28;20236;-65
2023/08/19 04:51:52;;;;;;;29.25;28.23;;;21.40;99.90;;;;;;5113926;28;20202;-65
2023/08/19 04:54:19;;;;;;;33.72;32.50;;;21.50;99.90;;;;;;5113158;28;20214;-66
2023/08/19 04:56:46;;;;;;;29.95;28.85;;;21.50;99.90;;;;;;5113004;28;20308;-66
2023/08/19 04:59:13;;;;;;;24.42;23.55;;;21.40;99.90;;;;;;5112164;28;20240;-66
2023/08/19 05:01:40;;;;;;;30.75;29.60;;;21.50;99.90;;;;;;5112913;28;20229;-67
2023/08/19 05:04:07;;;;;;;28.45;27.45;;;21.40;99.90;;;;;;5113403;28;20226;-65
2023/08/19 05:06:34;;;;;;;33.08;31.90;;;21.50;99.90;;;;;;5113041;28;20312;-66
2023/08/19 05:09:02;;;;;;;30.02;28.92;;;21.40;99.90;;;;;;5113201;28;20525;-66
2023/08/19 05:11:29;;;;;;;25.15;24.25;;;21.50;99.90;;;;;;5113259;28;20649;-66
2023/08/19 05:13:56;;;;;;;25.83;24.92;;;21.50;99.90;;;;;;5112249;28;20204;-63
2023/08/19 05:16:23;;;;;;;25.25;24.35;;;21.60;99.90;;;;;;5112674;28;20221;-65
2023/08/19 05:19:03;;;;;;;21.60;20.85;;;21.60;99.90;;;;;;5112145;28;20573;-65
2023/08/19 05:21:30;;;;;;;19.90;19.23;;;21.60;99.90;;;;;;5112084;28;20250;-65
2023/08/19 05:23:57;;;;;;;26.67;25.73;;;21.70;99.90;;;;;;5111298;28;20711;-65
2023/08/19 05:26:25;;;;;;;24.20;23.33;;;21.80;99.90;;;;;;5111908;28;20312;-63
2023/08/19 05:28:52;;;;;;;21.95;21.17;;;21.90;99.90;;;;;;5112025;28;20198;-66
2023/08/19 05:31:19;;;;;;;23.52;22.73;;;21.90;99.90;;;;;;5111215;28;20354;-66
2023/08/19 05:33:46;;;;;;;22.77;21.98;;;22.00;99.90;;;;;;5111594;28;20197;-65
2023/08/19 05:36:13;;;;;;;26.70;25.75;;;22.00;99.90;;;;;;5111732;28;20233;-63
2023/08/19 05:38:39;;;;;;;22.38;21.58;;;22.10;99.90;;;;;;5111773;28;20213;-64
2023/08/19 05:41:06;;;;;;;21.83;21.08;;;22.20;99.90;;;;;;5110986;28;20750;-66
2023/08/19 05:43:34;;;;;;;22.45;21.65;;;22.20;99.90;;;;;;5112729;28;20304;-66
2023/08/19 05:46:04;;;;;;;36.83;35.35;;;22.30;99.90;;;;;;5112473;28;20253;-64
2023/08/19 05:48:32;;;;;;;19.45;18.73;;;22.40;99.90;;;;;;5113775;28;20201;-67
2023/08/19 05:50:58;;;;;;;17.92;17.23;;;22.40;99.90;;;;;;5112136;28;20218;-66
2023/08/19 05:53:26;;;;;;;15.65;15.05;;;22.50;99.90;;;;;;5112343;28;20668;-66
2023/08/19 05:55:53;;;;;;;19.23;18.52;;;22.50;99.90;;;;;;5113158;28;20251;-67
2023/08/19 05:58:20;;;;;;;17.95;17.25;;;22.50;99.90;;;;;;5112473;28;20209;-64
2023/08/19 06:00:48;;;;;;;41.13;38.72;;;22.60;99.90;;;;;;5113343;28;20205;-64
2023/08/19 06:03:15;;;;;;;14.95;14.35;;;22.70;99.90;;;;;;5114824;28;20228;-66
2023/08/19 06:05:42;;;;;;;13.95;13.45;;;22.70;99.90;;;;;;5115003;28;20226;-65
2023/08/19 06:08:09;;;;;;;18.15;17.45;;;22.80;99.90;;;;;;5113390;28;20205;-65
2023/08/19 06:10:36;;;;;;;16.30;15.70;;;22.80;99.90;;;;;;5113347;28;20603;-67
2023/08/19 06:13:03;;;;;;;14.13;13.63;;;22.90;99.90;;;;;;5113256;28;20293;-65
2023/08/19 06:15:30;;;;;;;14.00;13.50;;;23.00;99.90;;;;;;5113775;28;20758;-65
2023/08/19 06:17:58;;;;;;;17.52;16.83;;;23.00;99.90;;;;;;5113316;28;20293;-67
2023/08/19 06:20:25;;;;;;;13.18;12.68;;;23.20;99.90;;;;;;5113214;28;20209;-65
2023/08/19 06:22:51;;;;;;;12.90;12.40;;;23.30;99.90;;;;;;5112956;28;20213;-66
2023/08/19 06:25:18;;;;;;;11.95;11.52;;;23.40;99.90;;;;;;5111913;28;20190;-66
2023/08/19 06:27:45;;;;;;;11.35;10.95;;;23.50;99.90;;;;;;5112418;28;20226;-67
2023/08/19 06:30:13;;;;;;;10.75;10.35;;;23.70;99.90;;;;;;5111818;28;20202;-65
2023/08/19 06:32:40;;;;;;;12.07;11.52;;;23.80;99.90;;;;;;5113652;28;20666;-64
2023/08/19 06:35:10;;;;;;;11.43;11.02;;;23.90;99.90;;;;;;5113607;28;20635;-67
2023/08/19 06:37:42;;;;;;;10.90;10.50;;;24.00;99.90;;;;;;5114873;28;20657;-65
2023/08/19 06:40:13;;;;;;;9.93;9.52;;;24.10;99.90;;;;;;5116007;28;20224;-64
2023/08/19 06:42:41;;;;;;;10.40;10.00;;;24.20;99.90;;;;;;5117396;28;20288;-68
2023/08/19 06:45:10;;;;;;;10.30;9.90;;;24.40;99.90;;;;;;5118479;28;20225;-65
2023/08/19 06:47:38;;;;;;;10.52;10.13;;;24.50;99.90;;;;;;5114124;28;20261;-64
2023/08/19 06:50:06;;;;;;;10.63;10.23;;;24.60;99.90;;;;;;5118092;28;20270;-65
2023/08/19 06:52:35;;;;;;;10.32;9.93;;;24.70;99.90;;;;;;5115926;28;20580;-65
2023/08/19 06:55:04;;;;;;;10.93;10.52;;;24.90;99.90;;;;;;5112712;28;20209;-65
2023/08/19 06:57:36;;;;;;;10.95;10.55;;;24.90;99.90;;;;;;5112502;28;20229;-65
2023/08/19 07:00:08;;;;;;;11.10;10.70;;;25.10;99.90;;;;;;5111762;28;20202;-65
2023/08/19 07:02:37;;;;;;;10.98;10.57;;;25.30;99.90;;;;;;5108762;28;20206;-65
2023/08/19 07:05:13;;;;;;;11.70;11.20;;;25.40;99.90;;;;;;5110410;28;20305;-66
2023/08/19 07:07:46;;;;;;;11.45;11.05;;;25.60;99.90;;;;;;5105809;28;20588;-64
2023/08/19 07:10:15;;;;;;;11.15;10.75;;;25.70;99.90;;;;;;5107462;28;20281;-66
2023/08/19 07:12:42;;;;;;;11.48;10.98;;;25.80;99.90;;;;;;5103311;28;20195;-64
2023/08/19 07:15:12;;;;;;;11.02;10.63;;;26.00;99.90;;;;;;5112293;28;20258;-66
2023/08/19 07:17:42;;;;;;;11.43;11.02;;;26.20;99.90;;;;;;5111625;28;20234;-66
2023/08/19 07:20:10;;;;;;;11.75;11.25;;;26.40;99.90;;;;;;5111027;28;20233;-66
2023/08/19 07:22:38;;;;;;;11.60;11.20;;;26.60;99.90;;;;;;5111554;28;20650;-65
2023/08/19 07:25:09;;;;;;;11.82;11.40;;;26.70;99.90;;;;;;5111219;28;20225;-66
2023/08/19 07:27:37;;;;;;;11.75;11.35;;;26.80;99.90;;;;;;5111082;28;20305;-65
2023/08/19 07:30:05;;;;;;;12.07;11.68;;;27.00;99.90;;;;;;5110269;28;20205;-65
2023/08/19 07:32:32;;;;;;;12.50;12.00;;;27.20;99.90;;;;;;5110274;28;20244;-65
2023/08/19 07:34:59;;;;;;;12.38;11.98;;;27.30;99.90;;;;;;5111052;28;20289;-66
2023/08/19 07:37:26;;;;;;;12.65;12.15;;;27.40;99.90;;;;;;5111000;28;20332;-64
2023/08/19 07:39:53;;;;;;;11.75;11.35;;;27.50;99.90;;;;;;5114393;28;20210;-66
2023/08/19 07:42:22;;;;;;;12.60;12.13;;;27.70;99.90;;;;;;5112281;28;20265;-65
2023/08/19 07:44:48;;;;;;;12.52;12.05;;;27.90;99.90;;;;;;5108473;28;20313;-64
2023/08/19 07:47:15;;;;;;;12.32;11.82;;;28.20;99.90;;;;;;5091049;28;20227;-64
2023/08/19 07:49:42;;;;;;;13.15;12.65;;;28.40;99.90;;;;;;5094028;28;20205;-65
2023/08/19 07:52:09;;;;;;;13.35;12.75;;;28.50;99.90;;;;;;5095897;28;20212;-65
2023/08/19 07:54:36;;;;;;;13.10;12.60;;;28.30;99.90;;;;;;5089647;28;20289;-65
2023/08/19 07:57:03;;;;;;;11.63;11.23;;;28.10;99.90;;;;;;5092040;28;20218;-65
2023/08/19 07:59:31;;;;;;;12.65;12.15;;;28.10;99.90;;;;;;5089881;28;20206;-65
2023/08/19 08:01:58;;;;;;;11.98;11.57;;;28.30;99.90;;;;;;5089903;28;20967;-64
2023/08/19 08:04:25;;;;;;;12.05;11.65;;;28.60;99.90;;;;;;5090539;28;20222;-65
2023/08/19 08:06:52;;;;;;;11.88;11.48;;;29.00;99.90;;;;;;5090753;28;20226;-65
2023/08/19 08:09:19;;;;;;;13.68;13.18;;;29.20;99.90;;;;;;5090040;28;20297;-65
2023/08/19 08:11:48;;;;;;;12.32;11.93;;;29.40;99.90;;;;;;5099932;28;20204;-64
2023/08/19 08:14:15;;;;;;;12.55;12.05;;;29.10;99.90;;;;;;5106658;28;20210;-64
2023/08/19 08:16:43;;;;;;;12.50;12.00;;;29.00;99.90;;;;;;5109986;28;20711;-64
2023/08/19 08:19:10;;;;;;;13.43;12.85;;;28.90;99.90;;;;;;5106951;28;20638;-65
2023/08/19 08:21:37;;;;;;;12.35;11.85;;;29.00;99.90;;;;;;5105516;28;20212;-65
2023/08/19 08:24:05;;;;;;;12.38;11.93;;;29.10;99.90;;;;;;5104293;28;20211;-66
2023/08/19 08:26:31;;;;;;;12.70;12.20;;;29.10;99.90;;;;;;5097535;28;20297;-65
2023/08/19 08:28:58;;;;;;;12.00;11.60;;;29.10;99.90;;;;;;5100915;28;20229;-64
2023/08/19 08:31:25;;;;;;;12.40;12.00;;;29.10;99.90;;;;;;5104512;28;20677;-65
2023/08/19 08:33:53;;;;;;;11.60;11.20;;;29.10;99.90;;;;;;5104628;28;20205;-65
2023/08/19 08:36:20;;;;;;;12.63;12.23;;;29.20;99.90;;;;;;5120682;22;21077;-67
2023/08/19 08:38:47;;;;;;;10.60;10.20;;;29.30;99.90;;;;;;5068968;28;20195;-66
2023/08/19 08:41:15;;;;;;;10.88;10.48;;;29.30;99.90;;;;;;5059850;28;20877;-66
2023/08/19 08:43:47;;;;;;;11.38;10.98;;;29.40;99.90;;;;;;5061949;28;20653;-68
2023/08/19 08:46:15;;;;;;;11.85;11.35;;;29.50;99.90;;;;;;5067172;28;20223;-67
2023/08/19 08:48:43;;;;;;;11.32;10.93;;;29.50;99.90;;;;;;5063425;28;20218;-67
2023/08/19 08:51:13;;;;;;;11.32;10.88;;;29.60;99.90;;;;;;5070009;28;20672;-67
2023/08/19 08:53:40;;;;;;;11.60;11.20;;;29.60;99.90;;;;;;5064077;28;20211;-67
2023/08/19 08:56:08;;;;;;;11.30;10.88;;;29.70;99.90;;;;;;5072675;28;20712;-65
2023/08/19 08:58:35;;;;;;;11.82;11.32;;;29.70;99.90;;;;;;5072122;28;20207;-66
2023/08/19 09:01:03;;;;;;;11.50;11.05;;;29.80;99.90;;;;;;5071509;28;20207;-67
2023/08/19 09:03:33;;;;;;;11.18;10.77;;;29.90;99.90;;;;;;5072089;28;20214;-69
2023/08/19 09:06:07;;;;;;;12.90;12.43;;;30.00;99.90;;;;;;5072207;28;20205;-67
2023/08/19 09:08:42;;;;;;;10.73;10.32;;;30.00;99.90;;;;;;5072418;28;20199;-66
2023/08/19 09:11:14;;;;;;;11.98;11.57;;;30.10;99.90;;;;;;5072227;28;20301;-66
2023/08/19 09:13:42;;;;;;;10.75;10.35;;;30.20;99.90;;;;;;5072107;28;20207;-66
2023/08/19 09:16:11;;;;;;;10.45;10.05;;;30.30;99.90;;;;;;5072304;28;20227;-66
2023/08/19 09:18:38;;;;;;;10.13;9.82;;;30.40;99.90;;;;;;5071884;28;20214;-66
2023/08/19 09:21:06;;;;;;;10.35;9.95;;;30.40;99.90;;;;;;5071819;28;20209;-67
2023/08/19 09:23:32;;;;;;;13.23;12.73;;;30.70;99.90;;;;;;5073246;28;20203;-68
2023/08/19 09:26:02;;;;;;;10.82;10.35;;;31.10;99.90;;;;;;5072413;28;20226;-69
2023/08/19 09:28:29;;;;;;;10.23;9.82;;;31.40;99.90;;;;;;5073158;28;20214;-66
2023/08/19 09:30:56;;;;;;;10.20;9.80;;;31.60;99.90;;;;;;5072203;28;20203;-67
2023/08/19 09:33:23;;;;;;;11.18;10.77;;;31.60;99.90;;;;;;5072472;28;20207;-65
2023/08/19 09:35:57;;;;;;;11.07;10.57;;;31.90;99.90;;;;;;5072419;28;20202;-67
2023/08/19 09:38:25;;;;;;;10.98;10.57;;;32.10;99.90;;;;;;5070961;28;20217;-67
2023/08/19 09:41:01;;;;;;;13.65;13.15;;;32.20;99.90;;;;;;5069852;28;20215;-66
2023/08/19 09:43:28;;;;;;;12.52;12.05;;;32.30;99.90;;;;;;5072353;28;20191;-65
2023/08/19 09:45:57;;;;;;;12.18;11.68;;;32.50;99.90;;;;;;5072355;28;20237;-67
2023/08/19 09:48:24;;;;;;;12.00;11.50;;;32.70;99.90;;;;;;5072467;28;20676;-65
2023/08/19 09:50:52;;;;;;;12.15;11.65;;;32.60;99.90;;;;;;5074506;28;20673;-68
2023/08/19 09:53:20;;;;;;;11.82;11.43;;;32.50;99.90;;;;;;5072519;28;20246;-67
2023/08/19 09:55:48;;;;;;;13.02;12.52;;;32.40;99.90;;;;;;5072032;28;20687;-66
2023/08/19 09:58:17;;;;;;;14.60;14.00;;;32.30;99.90;;;;;;5072059;28;20607;-69
2023/08/19 10:00:44;;;;;;;14.07;13.48;;;32.10;99.90;;;;;;5073547;28;20226;-65
2023/08/19 10:03:11;;;;;;;13.43;12.93;;;32.00;99.90;;;;;;5079165;28;20571;-66
2023/08/19 10:05:40;;;;;;;13.77;13.27;;;31.90;99.90;;;;;;5074056;28;20237;-67
2023/08/19 10:08:09;;;;;;;13.15;12.65;;;31.70;99.90;;;;;;5074518;28;20311;-66
2023/08/19 10:10:39;;;;;;;12.85;12.35;;;31.60;99.90;;;;;;5071183;28;20202;-67
2023/08/19 10:13:08;;;;;;;12.18;11.70;;;31.60;99.90;;;;;;5072045;28;20210;-66
2023/08/19 10:15:39;;;;;;;12.05;11.55;;;31.60;99.90;;;;;;5072907;28;20210;-64
2023/08/19 10:18:10;;;;;;;12.13;11.73;;;31.60;99.90;;;;;;5073097;28;20223;-66
2023/08/19 10:20:40;;;;;;;11.50;11.10;;;31.70;99.90;;;;;;5072267;28;20214;-66
2023/08/19 10:23:09;;;;;;;12.15;11.75;;;31.70;99.90;;;;;;5072219;28;20230;-67
2023/08/19 10:25:36;;;;;;;13.15;12.65;;;31.70;99.90;;;;;;5072677;28;20295;-65
2023/08/19 10:28:09;;;;;;;13.48;12.88;;;31.70;99.90;;;;;;5073854;28;20279;-65
2023/08/19 10:30:37;;;;;;;13.05;12.55;;;31.70;99.90;;;;;;5074070;28;20211;-65
2023/08/19 10:33:06;;;;;;;14.02;13.52;;;31.80;99.90;;;;;;5072406;28;20211;-68
2023/08/19 10:35:58;;;;;;;14.05;13.55;;;31.80;99.90;;;;;;5071231;28;20211;-67
2023/08/19 10:38:25;;;;;;;13.80;13.30;;;31.70;99.90;;;;;;5070865;28;20302;-65
2023/08/19 10:41:02;;;;;;;14.45;13.95;;;31.60;99.90;;;;;;5072086;28;20233;-67
2023/08/19 10:43:29;;;;;;;12.43;11.93;;;31.60;99.90;;;;;;5072354;28;20221;-67
2023/08/19 10:45:59;;;;;;;13.00;12.55;;;31.60;99.90;;;;;;5071242;28;20223;-66
2023/08/19 10:48:35;;;;;;;13.70;13.20;;;31.70;99.90;;;;;;5071434;28;20248;-66
2023/08/19 10:51:00;;;;;;;11.93;11.43;;;31.70;99.90;;;;;;5070584;28;20203;-65
2023/08/19 10:53:27;;;;;;;11.75;11.35;;;31.70;99.90;;;;;;5070918;28;20294;-67
2023/08/19 10:55:55;;;;;;;11.52;11.13;;;31.80;99.90;;;;;;5071485;28;20664;-66
2023/08/19 10:58:23;;;;;;;12.38;11.93;;;31.90;99.90;;;;;;5071845;28;20298;-66
2023/08/19 11:00:50;;;;;;;13.68;13.07;;;32.10;99.90;;;;;;5070762;28;20213;-67
2023/08/19 11:03:20;;;;;;;13.63;13.13;;;32.30;99.90;;;;;;5071105;28;20203;-67
2023/08/19 11:05:50;;;;;;;14.05;13.55;;;32.20;99.90;;;;;;5071442;28;20227;-68
2023/08/19 11:08:17;;;;;;;12.70;12.30;;;32.30;99.90;;;;;;5071243;28;20229;-65
2023/08/19 11:10:45;;;;;;;14.05;13.55;;;32.50;99.90;;;;;;5070816;28;20205;-65
2023/08/19 11:13:12;;;;;;;13.40;12.90;;;32.50;99.90;;;;;;5070796;28;20669;-65
2023/08/19 11:15:40;;;;;;;16.67;16.08;;;32.40;99.90;;;;;;5071175;28;20205;-68
2023/08/19 11:18:06;;;;;;;16.67;16.08;;;32.40;99.90;;;;;;5070812;28;20227;-65
2023/08/19 11:20:36;;;;;;;14.93;14.43;;;32.40;99.90;;;;;;5070343;28;20203;-66
2023/08/19 11:23:03;;;;;;;13.38;12.88;;;32.30;99.90;;;;;;5070802;28;20592;-67
2023/08/19 11:25:40;;;;;;;13.70;13.20;;;32.30;99.90;;;;;;5070528;28;20259;-67
2023/08/19 11:28:06;;;;;;;14.52;13.93;;;32.30;99.90;;;;;;5073719;28;20595;-66
2023/08/19 11:30:36;;;;;;;13.77;13.27;;;32.30;99.90;;;;;;5069545;28;20715;-68
2023/08/19 11:33:03;;;;;;;14.85;14.30;;;32.30;99.90;;;;;;5070804;28;20721;-66
2023/08/19 11:35:43;;;;;;;12.90;12.40;;;32.30;99.90;;;;;;5069630;28;20249;-65
2023/08/19 11:38:13;;;;;;;13.80;13.30;;;32.40;99.90;;;;;;5069068;28;20241;-66
2023/08/19 11:40:40;;;;;;;14.02;13.38;;;32.70;99.90;;;;;;5068753;28;20688;-67
2023/08/19 11:43:07;;;;;;;13.80;13.30;;;32.80;99.90;;;;;;5069437;28;20204;-67
2023/08/19 11:45:38;;;;;;;14.23;13.63;;;32.80;99.90;;;;;;5070105;28;20603;-66
2023/08/19 11:48:06;;;;;;;14.10;13.50;;;32.90;99.90;;;;;;5069909;28;20716;-65
2023/08/19 11:50:34;;;;;;;14.48;13.98;;;33.10;99.90;;;;;;5070683;28;20207;-65
2023/08/19 11:53:03;;;;;;;13.68;13.18;;;33.40;99.90;;;;;;5074014;28;20275;-66
2023/08/19 11:55:31;;;;;;;13.50;12.82;;;33.30;99.90;;;;;;5074548;28;20758;-66
2023/08/19 11:57:57;;;;;;;14.00;13.50;;;33.30;99.90;;;;;;5073768;28;20227;-68
2023/08/19 12:00:26;;;;;;;11.60;11.20;;;33.30;99.90;;;;;;5072174;28;20199;-66
2023/08/19 12:02:53;;;;;;;12.82;12.32;;;33.00;99.90;;;;;;5074822;28;20210;-66
2023/08/19 12:05:23;;;;;;;13.13;12.63;;;33.00;99.90;;;;;;5074401;28;20317;-66
2023/08/19 12:07:50;;;;;;;14.10;13.60;;;33.10;99.90;;;;;;5074814;28;20223;-69
2023/08/19 12:10:18;;;;;;;14.38;13.68;;;33.10;99.90;;;;;;5074179;28;20221;-67
2023/08/19 12:12:58;;;;;;;12.98;12.57;;;33.10;99.90;;;;;;5074764;28;20207;-67
2023/08/19 12:15:25;;;;;;;11.32;10.82;;;33.10;99.90;;;;;;5074912;28;20668;-66
2023/08/19 12:17:52;;;;;;;11.00;10.60;;;33.10;99.90;;;;;;5074727;28;20691;-66
2023/08/19 12:20:19;;;;;;;12.57;12.07;;;32.90;99.90;;;;;;5074444;28;20203;-66
2023/08/19 12:22:46;;;;;;;12.10;11.70;;;32.80;99.90;;;;;;5074568;28;20207;-67
2023/08/19 12:25:14;;;;;;;11.90;11.50;;;32.70;99.90;;;;;;5073435;28;20450;-67
2023/08/19 12:27:43;;;;;;;11.20;10.80;;;32.80;99.90;;;;;;5073136;28;20230;-67
2023/08/19 12:30:10;;;;;;;12.07;11.68;;;32.80;99.90;;;;;;5072307;28;20673;-67
2023/08/19 12:32:37;;;;;;;11.65;11.25;;;32.90;99.90;;;;;;5073190;28;20295;-68